Time;durP1;ratioP1;P1;durP2;ratioP2;P2;SDS_P1;SDS_P2;PMS_P1;PMS_P2;Temp;Humidity;BMP_temperature;BMP_pressure;BME280_temperature;BME280_humidity;BME280_pressure;Samples;Min_cycle;Max_cycle;Signal;HPM_P1;HPM_P2
2022/02/07 00:00:46;;;;;;;6.03;4.42;;;;;;;0.37;72.06;100591.03;1826213;78;20915;-68
2022/02/07 00:03:31;;;;;;;8.38;5.47;;;;;;;0.39;72.11;100592.70;1827645;78;20903;-68
2022/02/07 00:05:48;;;;;;;6.08;4.42;;;;;;;0.43;72.18;100589.64;1826032;77;21418;-67
2022/02/07 00:08:16;;;;;;;7.30;4.83;;;;;;;0.45;72.26;100580.59;1827714;78;20911;-68
2022/02/07 00:10:43;;;;;;;7.40;5.25;;;;;;;0.49;72.30;100579.63;1827625;77;21125;-68
2022/02/07 00:13:11;;;;;;;6.30;4.80;;;;;;;0.49;72.39;100568.89;1827598;78;21334;-67
2022/02/07 00:15:39;;;;;;;6.87;4.42;;;;;;;0.52;72.49;100565.39;1827556;78;20908;-68
2022/02/07 00:18:06;;;;;;;6.30;4.70;;;;;;;0.53;72.59;100561.47;1827616;78;20876;-67
2022/02/07 00:20:35;;;;;;;9.10;5.58;;;;;;;0.57;72.81;100561.83;1827785;77;20824;-68
2022/02/07 00:23:03;;;;;;;7.75;6.15;;;;;;;0.59;72.97;100554.06;1827633;77;21131;-70
2022/02/07 00:25:32;;;;;;;10.30;5.85;;;;;;;0.63;73.15;100555.71;1827583;77;21295;-69
2022/02/07 00:27:59;;;;;;;10.40;6.03;;;;;;;0.65;73.41;100547.95;1828052;78;20911;-68
2022/02/07 00:30:26;;;;;;;9.23;6.80;;;;;;;0.67;73.47;100535.42;1827544;78;20915;-69
2022/02/07 00:32:52;;;;;;;8.30;6.25;;;;;;;0.70;73.60;100540.95;1828000;77;20857;-68
2022/02/07 00:35:23;;;;;;;7.67;5.60;;;;;;;0.72;73.72;100534.88;1827540;78;21512;-68
2022/02/07 00:37:50;;;;;;;11.65;6.22;;;;;;;0.73;73.90;100525.39;1827420;78;20904;-69
2022/02/07 00:45:39;;;;;;;10.93;7.83;;;;;;;0.73;74.67;100515.91;1827565;78;21512;-67
2022/02/07 00:48:00;;;;;;;10.15;6.95;;;;;;;0.72;74.68;100505.19;1825841;77;21104;-69
2022/02/07 00:50:24;;;;;;;13.15;7.20;;;;;;;0.73;74.93;100496.55;1827056;78;21318;-70
2022/02/07 00:52:51;;;;;;;10.60;6.28;;;;;;;0.73;75.20;100489.26;1832924;77;20907;-68
2022/02/07 00:55:17;;;;;;;9.15;7.15;;;;;;;0.74;75.33;100489.23;1833813;77;21437;-69
2022/02/07 00:57:44;;;;;;;11.85;6.35;;;;;;;0.76;75.46;100487.92;1834025;76;20863;-69
2022/02/07 01:00:12;;;;;;;8.05;6.10;;;;;;;0.79;75.52;100492.56;1833742;78;21146;-69
2022/02/07 01:02:40;;;;;;;10.30;7.10;;;;;;;0.81;75.58;100493.38;1833681;77;20911;-69
2022/02/07 01:05:08;;;;;;;10.08;7.00;;;;;;;0.84;75.64;100493.75;1833036;78;20975;-69
2022/02/07 01:07:36;;;;;;;12.58;7.00;;;;;;;0.86;75.72;100490.69;1833324;77;20950;-69
2022/02/07 01:10:06;;;;;;;8.73;6.50;;;;;;;0.88;75.80;100480.34;1833042;77;20836;-69
2022/02/07 01:13:00;;;;;;;13.93;9.33;;;;;;;0.90;75.81;100485.88;1833453;78;21325;-68
2022/02/07 01:23:18;;;;;;;10.38;7.20;;;;;;;1.00;75.93;100474.88;1833326;78;20840;-69
2022/02/07 01:48:03;;;;;;;12.15;7.45;;;;;;;1.16;76.00;100444.41;1832904;77;20923;-69
2022/02/07 01:50:49;;;;;;;11.18;7.15;;;;;;;1.16;76.01;100436.22;1830997;78;21362;-68
2022/02/07 01:55:43;;;;;;;18.12;11.35;;;;;;;1.17;76.01;100428.02;1832735;77;21373;-70
2022/02/07 01:58:11;;;;;;;18.60;12.37;;;;;;;1.17;76.01;100424.14;1796714;80;20890;-70
2022/02/07 02:00:40;;;;;;;14.65;9.00;;;;;;;1.17;76.06;100418.53;1779390;80;20952;-70
2022/02/07 02:03:09;;;;;;;16.17;8.23;;;;;;;1.17;76.23;100408.65;1765182;80;21532;-70
2022/02/07 02:05:43;;;;;;;16.48;8.55;;;;;;;1.19;76.33;100405.59;1764554;80;21145;-69
2022/02/07 02:08:15;;;;;;;13.60;7.28;;;;;;;1.18;76.45;100399.58;1763534;81;20906;-69
2022/02/07 02:10:45;;;;;;;15.72;9.75;;;;;;;1.21;76.52;100396.06;1765406;81;21034;-69
2022/02/07 02:13:21;;;;;;;15.35;7.62;;;;;;;1.20;76.59;100391.35;1765023;81;20919;-70
2022/02/07 02:16:14;;;;;;;15.30;7.97;;;;;;;1.23;76.57;100391.71;1764815;81;20943;-69
2022/02/07 02:37:46;;;;;;;12.33;8.03;;;;;;;1.18;78.06;100356.13;1765545;81;20969;-67
2022/02/07 02:45:34;;;;;;;12.33;6.30;;;;;;;1.20;78.65;100346.58;1765199;81;21174;-66
2022/02/07 02:48:08;;;;;;;11.00;6.08;;;;;;;1.20;79.02;100339.70;1765037;81;20933;-68
2022/02/07 02:50:35;;;;;;;14.18;6.08;;;;;;;1.23;79.18;100334.44;1765079;81;20918;-68
2022/02/07 02:53:10;;;;;;;9.70;5.28;;;;;;;1.28;79.24;100326.57;1761316;81;20930;-70
2022/02/07 02:55:40;;;;;;;10.00;5.30;;;;;;;1.31;79.31;100331.67;1760317;80;21471;-70
2022/02/07 02:58:09;;;;;;;8.05;5.65;;;;;;;1.36;79.29;100325.93;1779642;80;21093;-69
2022/02/07 03:00:39;;;;;;;9.05;5.58;;;;;;;1.39;79.32;100325.84;1779567;80;20932;-70
2022/02/07 03:03:09;;;;;;;8.18;5.30;;;;;;;1.45;79.27;100331.30;1759919;80;21487;-69
2022/02/07 03:05:36;;;;;;;10.40;5.50;;;;;;;1.48;79.27;100328.62;1760437;81;20937;-70
2022/02/07 03:08:04;;;;;;;9.70;6.80;;;;;;;1.51;79.23;100327.68;1760108;81;20883;-69
2022/02/07 03:10:45;;;;;;;11.18;5.45;;;;;;;1.52;79.22;100313.44;1760418;81;21466;-69
2022/02/07 03:13:12;;;;;;;11.30;4.75;;;;;;;1.55;79.15;100319.80;1757269;80;21516;-69
2022/02/07 03:18:18;;;;;;;8.68;5.08;;;;;;;1.60;79.14;100319.25;1760059;81;20907;-72
2022/02/07 03:20:45;;;;;;;7.62;5.03;;;;;;;1.64;79.08;100308.36;1760136;81;20867;-69
2022/02/07 03:23:12;;;;;;;8.38;5.15;;;;;;;1.68;79.01;100306.55;1759997;81;21578;-68
2022/02/07 03:25:40;;;;;;;7.10;4.22;;;;;;;1.72;78.95;100305.58;1729705;81;20978;-71
2022/02/07 03:28:07;;;;;;;7.55;4.70;;;;;;;1.74;78.91;100303.34;1760161;80;21460;-69
2022/02/07 03:30:36;;;;;;;8.33;4.47;;;;;;;1.76;78.85;100303.31;1771482;80;21016;-69
2022/02/07 03:33:04;;;;;;;6.62;4.60;;;;;;;1.77;78.74;100303.70;1760075;81;20887;-70
2022/02/07 03:35:32;;;;;;;8.15;4.37;;;;;;;1.76;78.72;100295.10;1760233;80;21132;-70
2022/02/07 03:37:59;;;;;;;9.88;5.58;;;;;;;1.76;78.72;100301.56;1759902;80;20922;-68
2022/02/07 03:40:27;;;;;;;6.78;4.35;;;;;;;1.76;78.72;100296.39;1760304;80;20919;-69
2022/02/07 03:42:54;;;;;;;8.03;4.40;;;;;;;1.76;78.76;100295.10;1760005;81;20857;-68
2022/02/07 03:45:21;;;;;;;5.15;4.12;;;;;;;1.78;78.83;100283.41;1760358;80;20867;-70
2022/02/07 03:47:50;;;;;;;6.45;4.15;;;;;;;1.81;78.82;100294.97;1759836;81;21154;-68
2022/02/07 03:50:18;;;;;;;7.45;4.45;;;;;;;1.83;78.76;100290.60;1759968;81;20891;-70
2022/02/07 03:52:47;;;;;;;6.40;3.72;;;;;;;1.88;78.69;100291.30;1758894;81;20958;-69
2022/02/07 03:55:14;;;;;;;4.75;3.67;;;;;;;1.92;78.59;100293.36;1759215;81;20927;-68
2022/02/07 03:57:41;;;;;;;6.42;4.03;;;;;;;1.96;78.50;100298.85;1759181;81;20918;-67
2022/02/07 04:00:11;;;;;;;7.55;3.92;;;;;;;1.98;78.43;100286.27;1759353;81;21958;-67
2022/02/07 04:02:48;;;;;;;10.18;4.67;;;;;;;2.00;78.37;100284.48;1759459;81;21358;-67
2022/02/07 04:05:43;;;;;;;11.55;3.72;;;;;;;2.02;78.34;100276.23;1757483;81;20934;-69
2022/02/07 04:08:00;;;;;;;6.92;4.53;;;;;;;2.02;78.30;100272.36;1756342;80;20982;-69
2022/02/07 04:10:33;;;;;;;4.33;3.85;;;;;;;2.03;78.32;100264.98;1759507;81;20851;-68
2022/02/07 04:13:00;;;;;;;8.15;4.33;;;;;;;2.03;78.38;100258.52;1758342;81;21156;-70
2022/02/07 04:15:25;;;;;;;6.45;4.80;;;;;;;2.04;78.44;100267.95;1758824;81;21432;-68
2022/02/07 04:18:00;;;;;;;6.47;4.33;;;;;;;2.04;78.47;100249.86;1759329;81;21412;-68
2022/02/07 04:20:24;;;;;;;9.90;4.60;;;;;;;2.05;78.53;100261.91;1758986;81;20894;-69
2022/02/07 04:22:52;;;;;;;7.33;3.58;;;;;;;2.05;78.63;100263.66;1759239;81;20851;-69
2022/02/07 04:25:21;;;;;;;5.72;3.58;;;;;;;2.06;78.67;100249.36;1758122;81;21163;-69
2022/02/07 04:27:50;;;;;;;8.20;4.20;;;;;;;2.08;78.70;100248.03;1757422;81;20930;-68
2022/02/07 04:30:18;;;;;;;7.47;4.17;;;;;;;2.08;78.68;100233.35;1759667;81;20890;-69
2022/02/07 04:32:45;;;;;;;10.23;4.80;;;;;;;2.10;78.78;100235.06;1759235;80;20847;-68
2022/02/07 04:35:14;;;;;;;7.00;5.30;;;;;;;2.11;78.79;100234.99;1759476;80;20867;-69
2022/02/07 04:37:41;;;;;;;9.95;4.22;;;;;;;2.13;78.75;100232.38;1759274;80;21804;-69
2022/02/07 04:40:09;;;;;;;7.22;4.00;;;;;;;2.13;78.78;100232.38;1759575;81;21423;-67
2022/02/07 04:42:37;;;;;;;7.65;4.92;;;;;;;2.12;78.81;100234.11;1758984;81;21364;-68
2022/02/07 04:55:40;;;;;;;10.82;4.53;;;;;;;2.16;78.97;100238.76;1762213;81;20899;-68
2022/02/07 04:58:09;;;;;;;6.92;4.17;;;;;;;2.18;78.96;100227.47;1761237;81;21457;-68
2022/02/07 05:00:43;;;;;;;8.38;5.67;;;;;;;2.20;78.90;100217.05;1761405;81;21388;-67
2022/02/07 05:03:14;;;;;;;7.07;4.90;;;;;;;2.22;78.85;100218.72;1761206;80;21106;-68
2022/02/07 05:13:51;;;;;;;10.78;4.58;;;;;;;2.24;78.69;100201.83;1761959;80;20899;-69
2022/02/07 05:16:28;;;;;;;7.22;4.78;;;;;;;2.23;78.70;100215.67;1762679;81;21139;-68
2022/02/07 05:19:08;;;;;;;6.70;5.15;;;;;;;2.18;78.72;100196.42;1761546;80;20887;-70
2022/02/07 05:21:36;;;;;;;10.88;4.35;;;;;;;2.16;78.84;100199.50;1761331;81;20867;-67
2022/02/07 05:24:05;;;;;;;9.70;5.12;;;;;;;2.14;78.96;100196.12;1760653;81;20947;-69
2022/02/07 05:26:43;;;;;;;8.53;4.22;;;;;;;2.15;79.08;100191.78;1757606;81;21598;-69
2022/02/07 05:29:12;;;;;;;8.58;4.75;;;;;;;2.14;79.18;100198.70;1761468;81;22067;-69
2022/02/07 05:31:56;;;;;;;4.83;4.35;;;;;;;2.17;79.19;100195.17;1760635;81;20887;-68
2022/02/07 05:34:33;;;;;;;7.35;4.78;;;;;;;2.17;79.26;100192.13;1759814;81;20911;-68
2022/02/07 05:37:03;;;;;;;5.30;4.08;;;;;;;2.19;79.32;100190.80;1758664;81;20891;-70
2022/02/07 05:39:35;;;;;;;8.88;5.87;;;;;;;2.21;79.30;100187.26;1760485;81;21410;-68
2022/02/07 05:42:06;;;;;;;5.45;3.87;;;;;;;2.23;79.30;100189.34;1759206;81;21132;-70
2022/02/07 05:44:39;;;;;;;6.05;4.58;;;;;;;2.25;79.31;100192.73;1749431;80;20875;-70
2022/02/07 05:47:10;;;;;;;12.03;4.95;;;;;;;2.27;79.37;100195.28;1761783;81;21425;-74
2022/02/07 05:49:45;;;;;;;10.32;4.67;;;;;;;2.31;79.37;100203.77;1760811;81;21620;-75
2022/02/07 05:52:14;;;;;;;7.80;4.60;;;;;;;2.33;79.40;100196.34;1737441;81;20867;-75
2022/02/07 05:54:45;;;;;;;8.70;5.05;;;;;;;2.36;79.43;100196.72;1755997;81;21535;-75
2022/02/07 05:57:19;;;;;;;10.68;4.97;;;;;;;2.38;79.39;100193.19;1759147;81;20962;-78
2022/02/07 05:59:53;;;;;;;9.63;5.22;;;;;;;2.41;79.35;100198.70;1757480;81;20887;-75
2022/02/07 06:02:38;;;;;;;7.75;5.12;;;;;;;2.44;79.29;100198.13;1760352;80;20970;-74
2022/02/07 06:05:11;;;;;;;8.35;4.78;;;;;;;2.44;79.25;100190.37;1758376;81;21440;-77
2022/02/07 06:07:38;;;;;;;10.43;7.75;;;;;;;2.44;79.24;100186.48;1759165;81;21839;-78
2022/02/07 06:10:06;;;;;;;6.33;5.20;;;;;;;2.45;79.24;100183.02;1759438;81;20918;-74
2022/02/07 06:12:36;;;;;;;6.37;5.20;;;;;;;2.46;79.24;100183.41;1759534;81;21377;-79
2022/02/07 06:15:05;;;;;;;8.85;5.10;;;;;;;2.47;79.27;100197.21;1759446;81;20859;-77
2022/02/07 06:17:34;;;;;;;7.05;4.85;;;;;;;2.48;79.31;100198.89;1758976;80;20915;-75
2022/02/07 06:20:01;;;;;;;10.23;5.62;;;;;;;2.49;79.30;100196.26;1759344;81;21073;-77
2022/02/07 06:22:29;;;;;;;8.83;5.25;;;;;;;2.52;79.32;100194.47;1759482;80;20950;-75
2022/02/07 06:24:57;;;;;;;12.35;4.58;;;;;;;2.52;79.31;100200.48;1759152;81;20957;-77
2022/02/07 06:27:24;;;;;;;10.20;5.35;;;;;;;2.54;79.28;100199.98;1759224;81;20887;-78
2022/02/07 06:29:52;;;;;;;11.97;5.62;;;;;;;2.57;79.26;100200.33;1759332;81;20898;-76
2022/02/07 06:32:20;;;;;;;7.47;5.22;;;;;;;2.56;79.23;100196.89;1759147;80;21708;-79
2022/02/07 06:34:48;;;;;;;9.85;5.65;;;;;;;2.58;79.21;100193.81;1759157;80;20982;-79
2022/02/07 06:37:17;;;;;;;8.80;6.30;;;;;;;2.59;79.11;100185.13;1759250;81;20955;-78
2022/02/07 06:39:44;;;;;;;9.78;5.60;;;;;;;2.60;79.05;100195.90;1759477;80;20883;-77
2022/02/07 06:42:11;;;;;;;7.90;6.17;;;;;;;2.63;78.96;100185.89;1758962;81;20860;-78
2022/02/07 06:44:41;;;;;;;10.40;6.53;;;;;;;2.62;78.88;100170.81;1759475;81;21116;-79
2022/02/07 06:47:08;;;;;;;11.18;6.42;;;;;;;2.63;78.91;100172.48;1758871;80;20946;-79
2022/02/07 06:49:37;;;;;;;11.50;5.97;;;;;;;2.65;78.81;100163.39;1759228;80;21017;-79
2022/02/07 06:52:06;;;;;;;9.98;6.28;;;;;;;2.66;78.78;100165.90;1759103;80;21372;-80
2022/02/07 06:54:33;;;;;;;11.75;7.45;;;;;;;2.66;78.82;100166.35;1763264;81;20870;-70
2022/02/07 06:57:00;;;;;;;9.65;6.85;;;;;;;2.65;78.90;100155.62;1762422;81;21138;-77
2022/02/07 06:59:31;;;;;;;9.85;5.87;;;;;;;2.67;78.98;100162.89;1764946;81;21432;-80
2022/02/07 07:02:00;;;;;;;14.00;6.55;;;;;;;2.67;78.98;100167.61;1764863;81;20966;-82
2022/02/07 07:04:29;;;;;;;9.40;5.85;;;;;;;2.69;79.00;100158.47;1765046;81;20903;-80
2022/02/07 07:06:56;;;;;;;11.22;5.62;;;;;;;2.70;79.03;100153.70;1764982;81;21167;-81
2022/02/07 07:09:23;;;;;;;7.83;5.28;;;;;;;2.75;79.05;100155.67;1765184;81;21129;-79
2022/02/07 07:11:53;;;;;;;9.38;6.03;;;;;;;2.78;78.96;100146.52;1764918;80;21415;-81
2022/02/07 07:14:39;;;;;;;14.40;7.75;;;;;;;2.81;78.93;100142.97;1765268;80;20914;-80
2022/02/07 07:17:00;;;;;;;17.10;7.42;;;;;;;2.82;78.96;100152.41;1763402;81;21447;-79
2022/02/07 07:19:29;;;;;;;11.70;7.05;;;;;;;2.85;78.95;100156.21;1764201;81;20927;-79
2022/02/07 07:21:56;;;;;;;10.55;6.78;;;;;;;2.83;79.00;100149.78;1765892;81;21824;-80
2022/02/07 07:24:24;;;;;;;12.25;7.40;;;;;;;2.83;79.03;100145.06;1764656;80;20914;-77
2022/02/07 07:26:51;;;;;;;10.38;7.08;;;;;;;2.84;79.10;100142.85;1765179;81;21484;-79
2022/02/07 07:29:26;;;;;;;10.48;7.65;;;;;;;2.83;79.17;100137.30;1764771;81;21435;-79
2022/02/07 07:31:55;;;;;;;16.73;7.65;;;;;;;2.82;79.33;100140.77;1764683;81;20995;-79
2022/02/07 07:34:22;;;;;;;16.65;7.90;;;;;;;2.82;79.41;100139.47;1764835;81;22249;-78
2022/02/07 07:36:50;;;;;;;12.07;8.08;;;;;;;2.83;79.47;100136.00;1764934;81;21463;-79
2022/02/07 07:39:19;;;;;;;12.82;7.55;;;;;;;2.83;79.57;100132.95;1763064;81;20974;-78
2022/02/07 07:41:47;;;;;;;13.60;7.00;;;;;;;2.88;79.60;100109.48;1764937;81;20942;-79
2022/02/07 07:44:22;;;;;;;12.23;6.50;;;;;;;2.88;79.66;100106.89;1763092;81;21416;-80
2022/02/07 07:46:54;;;;;;;13.05;6.40;;;;;;;2.87;79.75;100115.11;1763126;81;21113;-81
2022/02/07 07:49:45;;;;;;;12.23;6.30;;;;;;;2.86;79.87;100118.59;1764794;80;20933;-80
2022/02/07 07:52:16;;;;;;;13.10;7.20;;;;;;;2.84;79.96;100113.91;1737682;81;20970;-79
2022/02/07 08:01:20;;;;;;;11.05;6.10;;;;;;;2.84;80.16;100111.78;1758718;81;20958;-79
2022/02/07 08:02:47;;;;;;;14.10;7.85;;;;;;;2.77;80.80;100102.55;1759194;81;21013;-78
2022/02/07 08:05:41;;;;;;;9.55;6.72;;;;;;;2.77;81.01;100103.39;1758934;81;21412;-77
2022/02/07 08:07:55;;;;;;;16.57;7.10;;;;;;;2.78;81.18;100106.39;1754688;81;20934;-80
2022/02/07 08:10:39;;;;;;;12.28;7.12;;;;;;;2.81;81.29;100109.31;1759022;80;20927;-76
2022/02/07 08:12:53;;;;;;;16.97;7.65;;;;;;;2.82;81.33;100104.06;1755780;81;21348;-78
2022/02/07 08:15:20;;;;;;;14.53;7.17;;;;;;;2.85;81.46;100109.14;1759307;80;20871;-80
2022/02/07 08:17:48;;;;;;;13.85;8.10;;;;;;;2.87;81.58;100112.98;1759472;81;21459;-78
2022/02/07 08:20:15;;;;;;;13.25;6.37;;;;;;;2.88;81.60;100098.66;1759348;81;20891;-77
2022/02/07 08:22:43;;;;;;;14.43;7.03;;;;;;;2.89;81.61;100096.48;1759275;81;20915;-79
2022/02/07 08:25:10;;;;;;;11.43;6.40;;;;;;;2.92;81.64;100089.50;1759381;81;21853;-80
2022/02/07 08:27:38;;;;;;;14.93;7.35;;;;;;;2.93;81.60;100097.20;1758640;80;20962;-81
2022/02/07 08:30:08;;;;;;;17.48;6.97;;;;;;;2.97;81.53;100100.07;1773896;81;20893;-81
2022/02/07 08:32:35;;;;;;;15.90;7.15;;;;;;;3.02;81.44;100103.78;1759846;80;20866;-77
2022/02/07 08:35:02;;;;;;;15.28;7.70;;;;;;;3.07;81.35;100100.13;1759480;80;20932;-79
2022/02/07 08:37:29;;;;;;;20.00;7.30;;;;;;;3.13;81.21;100099.50;1759321;81;21796;-79
2022/02/07 08:39:55;;;;;;;13.55;6.85;;;;;;;3.17;81.11;100104.50;1759481;81;20907;-77
2022/02/07 08:42:22;;;;;;;10.72;7.55;;;;;;;3.20;81.02;100108.30;1759307;81;20922;-73
2022/02/07 08:44:49;;;;;;;11.55;6.60;;;;;;;3.25;80.99;100109.41;1759297;81;20977;-76
2022/02/07 08:47:17;;;;;;;15.95;7.10;;;;;;;3.29;80.92;100091.09;1759401;81;21000;-75
2022/02/07 08:49:44;;;;;;;8.95;5.70;;;;;;;3.35;80.82;100095.64;1759601;81;21071;-73
2022/02/07 08:52:13;;;;;;;10.98;6.55;;;;;;;3.41;80.66;100102.73;1759124;81;20915;-74
2022/02/07 08:54:40;;;;;;;15.68;6.30;;;;;;;3.44;80.55;100096.58;1759686;79;20970;-77
2022/02/07 08:57:16;;;;;;;18.57;6.28;;;;;;;3.50;80.43;100104.13;1759385;81;20982;-78
2022/02/07 08:59:56;;;;;;;11.45;6.25;;;;;;;3.56;80.24;100091.36;1789807;79;20930;-77
2022/02/07 09:02:20;;;;;;;18.25;5.90;;;;;;;3.60;79.96;100104.59;1742486;81;20885;-79
2022/02/07 09:04:47;;;;;;;70.45;12.82;;;;;;;3.64;79.71;100107.46;1757881;81;20958;-73
2022/02/07 09:07:22;;;;;;;26.07;7.47;;;;;;;3.67;79.57;100103.47;1772999;81;20892;-71
2022/02/07 09:09:45;;;;;;;22.67;7.58;;;;;;;3.68;79.41;100095.61;1758130;81;20970;-71
2022/02/07 09:12:13;;;;;;;19.37;8.05;;;;;;;3.69;79.32;100084.77;1759281;81;20922;-72
2022/02/07 09:14:54;;;;;;;14.30;7.45;;;;;;;3.70;79.32;100089.07;1759238;80;21863;-71
2022/02/07 09:17:12;;;;;;;15.08;5.85;;;;;;;3.69;79.34;100076.56;1757135;81;20898;-72
2022/02/07 09:19:40;;;;;;;21.55;7.17;;;;;;;3.72;79.30;100069.11;1759333;80;20934;-73
2022/02/07 09:22:07;;;;;;;9.45;5.95;;;;;;;3.72;79.33;100058.28;1759226;81;21227;-71
2022/02/07 09:24:35;;;;;;;10.13;6.05;;;;;;;3.74;79.33;100056.47;1759210;81;21388;-72
2022/02/07 09:27:02;;;;;;;19.48;7.58;;;;;;;3.77;79.23;100045.58;1759220;80;21505;-71
2022/02/07 09:29:31;;;;;;;13.40;6.15;;;;;;;3.80;79.16;100045.02;1759239;81;20966;-70
2022/02/07 09:32:00;;;;;;;20.97;8.15;;;;;;;3.87;79.00;100046.91;1759312;81;20977;-70
2022/02/07 09:34:26;;;;;;;10.20;5.40;;;;;;;3.90;78.79;100038.52;1759122;80;20926;-72
2022/02/07 09:36:53;;;;;;;13.18;7.15;;;;;;;3.94;78.63;100041.38;1759232;81;20978;-71
2022/02/07 09:39:23;;;;;;;13.40;6.78;;;;;;;3.99;78.53;100045.53;1759338;81;21067;-71
2022/02/07 09:41:52;;;;;;;15.58;7.35;;;;;;;4.02;78.42;100033.72;1759401;81;21407;-69
2022/02/07 09:44:21;;;;;;;21.62;6.90;;;;;;;4.06;78.27;100030.93;1759114;80;20903;-70
2022/02/07 09:46:48;;;;;;;16.93;7.62;;;;;;;4.12;78.04;100033.73;1758932;80;21503;-72
2022/02/07 09:49:22;;;;;;;10.70;7.10;;;;;;;4.16;77.90;100032.70;1759266;80;20918;-71
2022/02/07 09:51:49;;;;;;;15.30;8.40;;;;;;;4.19;77.85;100030.42;1759348;80;21557;-70
2022/02/07 09:54:21;;;;;;;20.08;7.42;;;;;;;4.26;77.65;100025.34;1759123;80;21002;-70
2022/02/07 09:56:49;;;;;;;13.78;7.53;;;;;;;4.29;77.53;100020.88;1759242;81;21013;-72
2022/02/07 09:59:18;;;;;;;14.93;7.03;;;;;;;4.35;77.37;100018.45;1759155;81;20969;-72
2022/02/07 10:01:47;;;;;;;9.68;5.53;;;;;;;4.38;77.16;100014.44;1759197;81;20887;-68
2022/02/07 10:04:30;;;;;;;14.15;7.58;;;;;;;4.39;76.92;100017.41;1759222;81;21842;-69
2022/02/07 10:14:46;;;;;;;14.83;6.85;;;;;;;4.25;77.02;100009.40;1758946;81;21040;-69
2022/02/07 10:17:27;;;;;;;10.65;5.60;;;;;;;4.25;77.13;100008.94;1758157;81;21211;-73
2022/02/07 10:19:56;;;;;;;13.58;5.60;;;;;;;4.25;77.14;100002.45;1755866;80;20894;-73
2022/02/07 10:37:42;;;;;;;15.50;6.92;;;;;;;4.35;77.05;99988.13;1759170;80;20899;-70
2022/02/07 10:38:56;;;;;;;11.83;6.55;;;;;;;4.36;77.08;99983.34;1725891;80;20958;-67
2022/02/07 10:41:53;;;;;;;11.83;5.70;;;;;;;4.35;77.02;99979.52;1757381;81;20918;-71
2022/02/07 10:44:58;;;;;;;15.80;7.25;;;;;;;4.34;77.00;99983.03;1756638;81;21839;-69
2022/02/07 10:47:24;;;;;;;18.73;6.90;;;;;;;4.32;77.06;99975.77;1757555;81;20953;-71
2022/02/07 10:50:16;;;;;;;10.98;6.17;;;;;;;4.30;77.22;99968.50;1758789;81;20891;-71
2022/02/07 10:53:02;;;;;;;10.78;6.12;;;;;;;4.30;77.25;99962.84;1729274;81;20954;-69
2022/02/07 10:55:36;;;;;;;15.80;7.35;;;;;;;4.32;77.22;99962.33;1762164;80;21391;-69
2022/02/07 10:58:06;;;;;;;14.03;6.33;;;;;;;4.35;77.22;99955.69;1764845;80;21132;-69
2022/02/07 11:00:41;;;;;;;13.62;6.70;;;;;;;4.37;77.15;99960.82;1764728;81;20871;-70
2022/02/07 11:03:18;;;;;;;14.73;7.40;;;;;;;4.37;77.08;99959.52;1763770;80;20851;-71
2022/02/07 11:05:50;;;;;;;16.23;8.73;;;;;;;4.38;77.04;99957.77;1764519;80;20875;-69
2022/02/07 11:08:45;;;;;;;12.43;7.92;;;;;;;4.37;77.01;99954.33;1763969;81;21416;-67
2022/02/07 11:11:04;;;;;;;13.40;8.10;;;;;;;4.35;77.07;99952.26;1729468;81;21157;-69
2022/02/07 11:15:44;;;;;;;21.87;8.65;;;;;;;4.36;77.07;99946.17;1764780;81;20879;-68
2022/02/07 11:18:22;;;;;;;19.30;9.05;;;;;;;4.34;77.10;99942.34;1763591;80;20934;-69
2022/02/07 11:20:53;;;;;;;17.45;9.40;;;;;;;4.33;77.11;99943.23;1762108;81;20843;-74
2022/02/07 11:23:34;;;;;;;13.78;8.83;;;;;;;4.34;77.15;99934.55;1762791;80;21841;-70
2022/02/07 11:26:08;;;;;;;19.48;8.75;;;;;;;4.37;77.18;99933.56;1763720;80;20907;-69
2022/02/07 11:28:33;;;;;;;;;;;;;;;4.43;77.12;99938.95;1766503;80;20927;-70
2022/02/07 11:31:04;;;;;;;15.90;9.38;;;;;;;4.47;77.05;99932.68;1795447;80;20115;-69
2022/02/07 11:33:52;;;;;;;23.92;9.10;;;;;;;4.48;76.93;99931.32;1764994;81;21396;-69
2022/02/07 11:36:35;;;;;;;27.65;12.40;;;;;;;4.48;76.90;99935.22;1764767;80;21539;-69
2022/02/07 11:39:17;;;;;;;17.98;10.63;;;;;;;4.49;76.92;99936.92;1796381;80;21497;-68
2022/02/07 11:42:02;;;;;;;16.67;10.32;;;;;;;4.54;76.96;99937.53;1764807;80;20861;-70
2022/02/07 11:44:43;;;;;;;14.20;8.58;;;;;;;4.57;76.96;99941.28;1796411;80;28138;-69
2022/02/07 11:47:30;;;;;;;18.37;9.43;;;;;;;4.64;76.93;99941.00;1796237;80;20974;-72
2022/02/07 11:50:01;;;;;;;19.95;9.50;;;;;;;4.68;76.72;99939.95;1765123;80;21776;-70
2022/02/07 11:52:49;;;;;;;23.32;9.55;;;;;;;4.69;76.68;99941.19;1796193;78;20906;-71
2022/02/07 11:55:33;;;;;;;21.00;10.18;;;;;;;4.71;76.61;99934.59;1792047;80;20936;-70
2022/02/07 11:58:10;;;;;;;14.45;8.68;;;;;;;4.72;76.49;99935.84;1778209;80;20939;-70
2022/02/07 12:00:33;;;;;;;15.48;9.25;;;;;;;4.72;76.51;99932.41;1777923;80;20979;-69
2022/02/07 12:03:05;;;;;;;14.93;9.90;;;;;;;4.72;76.44;99942.33;1779194;80;21878;-68
2022/02/07 12:05:32;;;;;;;15.95;9.00;;;;;;;4.73;76.44;99943.17;1779168;80;20968;-70
2022/02/07 12:09:30;;;;;;;18.20;8.78;;;;;;;4.82;76.42;99939.30;1797773;79;22565;-69
2022/02/07 12:11:57;;;;;;;17.52;10.15;;;;;;;4.80;76.42;99935.92;1758501;80;20911;-69
2022/02/07 12:14:34;;;;;;;16.42;9.43;;;;;;;4.84;76.36;99929.67;1758424;80;21120;-67
2022/02/07 12:17:01;;;;;;;17.73;10.13;;;;;;;4.86;76.29;99933.05;1757886;81;21050;-69
2022/02/07 12:19:39;;;;;;;14.33;9.83;;;;;;;4.89;76.24;99930.29;1758252;80;21437;-70
2022/02/07 12:22:18;;;;;;;20.85;11.95;;;;;;;4.93;76.17;99924.04;1758205;80;20927;-69
2022/02/07 12:24:54;;;;;;;21.97;11.40;;;;;;;4.97;76.08;99922.98;1758363;80;21335;-71
2022/02/07 12:27:20;;;;;;;21.68;11.57;;;;;;;4.99;75.97;99921.98;1758345;80;20963;-71
2022/02/07 12:30:05;;;;;;;17.98;10.65;;;;;;;5.00;75.92;99913.73;1758173;81;20888;-70
2022/02/07 12:32:16;;;;;;;16.02;9.83;;;;;;;5.02;75.90;99909.30;1755840;80;21377;-70
2022/02/07 12:34:43;;;;;;;23.25;11.48;;;;;;;5.03;75.86;99903.20;1758567;80;20884;-70
2022/02/07 12:37:10;;;;;;;20.27;11.43;;;;;;;5.07;75.85;99906.48;1758642;80;20992;-70
2022/02/07 12:39:40;;;;;;;19.62;10.80;;;;;;;5.11;75.74;99911.91;1758227;81;21140;-69
2022/02/07 12:42:07;;;;;;;18.10;11.68;;;;;;;5.12;75.72;99907.95;1758118;80;20928;-69
2022/02/07 12:44:37;;;;;;;30.60;11.30;;;;;;;5.16;75.68;99893.06;1758401;81;20872;-69
2022/02/07 12:47:05;;;;;;;26.42;10.78;;;;;;;5.17;75.66;99892.96;1758402;80;20924;-70
2022/02/07 12:49:38;;;;;;;21.60;12.13;;;;;;;5.19;75.56;99882.03;1739553;80;21003;-70
2022/02/07 12:52:05;;;;;;;17.20;12.23;;;;;;;5.21;75.53;99885.87;1758335;80;21169;-71
2022/02/07 12:54:36;;;;;;;19.73;11.53;;;;;;;5.22;75.44;99865.44;1758207;80;21423;-70
2022/02/07 12:57:04;;;;;;;22.82;10.45;;;;;;;5.23;75.30;99864.54;1758550;80;20931;-75
2022/02/07 12:59:32;;;;;;;22.73;11.20;;;;;;;5.23;75.24;99866.30;1758154;80;20908;-69
2022/02/07 13:02:00;;;;;;;17.57;11.00;;;;;;;5.20;75.30;99860.77;1758173;80;21441;-66
2022/02/07 13:04:26;;;;;;;28.27;12.53;;;;;;;5.20;75.40;99867.27;1758432;80;21556;-68
2022/02/07 13:06:55;;;;;;;18.75;11.30;;;;;;;5.19;75.55;99857.34;1758184;80;20912;-68
2022/02/07 13:09:42;;;;;;;26.68;12.43;;;;;;;5.22;75.57;99861.54;1747209;81;21054;-69
2022/02/07 13:14:44;;;;;;;;;;;;;;;5.24;75.59;99848.48;1748013;82;21020;-74
2022/02/07 13:17:10;;;;;;;19.87;13.08;;;;;;;5.26;75.50;99847.48;1744624;81;21156;-70
2022/02/07 13:19:47;;;;;;;21.55;13.38;;;;;;;5.20;75.55;99841.28;1744981;81;21019;-68
2022/02/07 13:22:16;;;;;;;23.73;12.25;;;;;;;5.15;75.64;99845.41;1744761;81;20921;-69
2022/02/07 13:24:43;;;;;;;20.50;11.48;;;;;;;5.10;75.87;99852.61;1744984;81;20940;-68
2022/02/07 13:27:13;;;;;;;18.55;12.30;;;;;;;5.06;76.07;99841.98;1744580;82;21035;-70
2022/02/07 13:29:47;;;;;;;21.40;13.50;;;;;;;5.06;76.18;99842.44;1733755;82;20924;-71
2022/02/07 13:32:17;;;;;;;26.68;13.48;;;;;;;5.07;76.34;99850.17;1744725;80;20853;-71
2022/02/07 13:34:45;;;;;;;27.87;13.60;;;;;;;5.11;76.39;99849.55;1744533;81;21011;-71
2022/02/07 13:37:20;;;;;;;23.12;12.55;;;;;;;5.14;76.41;99848.95;1744491;81;20940;-71
2022/02/07 13:40:25;;;;;;;23.27;11.93;;;;;;;5.19;76.38;99846.11;1744158;81;20972;-72
2022/02/07 13:42:52;;;;;;;26.37;13.98;;;;;;;5.23;76.28;99849.41;1744613;80;21310;-72